Terminal Aerodrome Forecast
Issued by NWS Wilmington, OH

Current Version | Previous Version | Graphics & Text | Print | Product List | Glossary On
Versions: 1 2 3 4 5 6 7 8 9 10 11 12 13 14 15 16 17 18 19 20 21 22 23 24 25 26
000
FTUS41 KILN 202346
TAFCVG
TAF
KCVG 202346Z 2100/2206 20007KT P6SM OVC015
     FM210600 20007KT P6SM VCSH OVC018
     FM211700 20010KT 5SM BR OVC008
     FM212300 17006KT 5SM BR OVC014
     FM220300 17006KT P6SM BKN035=

USA.gov is the U.S. government's official web portal to all federal, state and local government web resources and services.